LPPT/LIS METAR and TAF weather

Enter ICAO airport designator
Station Type Date Time Source
LPPT METAR 2019/05/23 19:30 UTC NOAA

LPPT 231930Z 35012KT 9999 FEW024 17/12 Q1020


Station Type Date Time Source
LPPT Decoded METAR 2019/05/23 19:30 UTC NOAA

Lisboa / Portela, Portugal (LPPT) 38-46N 009-08W 123M
May 23, 2019 - 03:30 PM EDT / 2019.05.23 1930 UTC
Wind: from the N (350 degrees) at 14 MPH (12 KT):0
Visibility: greater than 7 mile(s):0
Sky conditions: mostly clear
Temperature: 62 F (17 C)
Dew Point: 53 F (12 C)
Relative Humidity: 72%
Pressure (altimeter): 30.12 in. Hg (1020 hPa)
ob: LPPT 231930Z 35012KT 9999 FEW024 17/12 Q1020
cycle: 19

Station Type Date Time Source
LPPT TAF 2019/05/23 18:18 UTC NOAA

TAF LPPT 231700Z 2318/2424 32013KT 9999 FEW030 PROB40
TEMPO 2318/2321 32018G28KT
BECMG 2321/2324 SCT015
BECMG 2406/2509 35018KT CAVOK
TEMPO 2409/2421 35023G35KT
BECMG 2421/2424 35013KT

Example: see airport list